Mn Pelican — FMLR — position and weather

sailwx.info

Track history (hours):
 
Tides and Currents Weather Stations Pressure Air Temp Water Temp Dewpoint Dewpoint Depression Visibility Wind Speed Wind Dir Waves Ship Positions

Mn Pelican

Last reported at 2016-Sep-24 22:17 UTC. Time now 2016-Sep-25 08:53 UTC.
Position N 49°46' W 003°48'.

Length 155 m; draft 6.1 m.

Type: Ship. MMSI: 228315700.

Date/timePositionNaut miles runAvg speedWind from/ knotsBaromVisibWave heightAir tempDewpointWater temp
2016-Sep-24 22:17N 49°46' W 003°48'912.7
2016-Sep-24 21:32N 49°52' W 003°36'2814.3
2016-Sep-24 19:33N 50°07' W 002°59'1515.1
2016-Sep-24 18:33N 50°15' W 002°39'1715.0
2016-Sep-24 17:27N 50°23' W 002°16'1314.0
2016-Sep-24 16:29N 50°30' W 001°58'13 6.3
2016-Sep-24 14:29N 50°42' W 001°59'0 0.0
2016-Sep-24 12:29N 50°42' W 001°59'0 0.0
2016-Sep-24 10:31N 50°42' W 001°59'0 0.0
2016-Sep-24 09:33N 50°42' W 001°59'67 8.3
2016-Sep-24 01:33N 49°48' W 003°01'1515.3
2016-Sep-24 00:34N 49°41' W 003°21'7615.1
2016-Sep-23 19:33N 49°02' W 005°01'  
2016-Sep-21 03:33N 50°05' W 003°16'1615.7
2016-Sep-21 02:33N 50°11' W 002°53'46 5.2
2016-Sep-20 17:33N 50°38' W 001°53'  
2016-Sep-17 22:33N 49°51' W 003°38'1414.2
2016-Sep-17 21:34N 49°59' W 003°19'1312.8
2016-Sep-17 20:33N 50°07' W 003°04'1511.9
2016-Sep-17 19:15N 50°14' W 002°42'40 6.9
2016-Sep-17 13:31N 50°42' W 001°59'0 0.0
2016-Sep-17 12:31N 50°42' W 001°59'0 0.0
2016-Sep-17 10:33N 50°42' W 001°59'0 0.0
2016-Sep-17 09:32N 50°42' W 001°59'1 0.8
2016-Sep-17 08:33N 50°42' W 001°58'9 9.3
2016-Sep-17 07:33N 50°35' W 001°49'27911.6
2016-Sep-16 07:32N 46°22' W 004°45'  
Track history (hours):
 
Tides and Currents Weather Stations Pressure Air Temp Water Temp Dewpoint Dewpoint Depression Visibility Wind Speed Wind Dir Waves Ship Positions

Mn Pelican

Last reported at 2016-Sep-24 22:17 UTC. Time now 2016-Sep-25 08:53 UTC.
Position N 49°46' W 003°48'.

Length 155 m; draft 6.1 m.

Type: Ship. MMSI: 228315700.

Date/timePositionNaut miles runAvg speedWind from/ knotsBaromVisibWave heightAir tempDewpointWater temp
2016-Sep-24 22:17N 49°46' W 003°48'912.7
2016-Sep-24 21:32N 49°52' W 003°36'2814.3
2016-Sep-24 19:33N 50°07' W 002°59'1515.1
2016-Sep-24 18:33N 50°15' W 002°39'1715.0
2016-Sep-24 17:27N 50°23' W 002°16'1314.0
2016-Sep-24 16:29N 50°30' W 001°58'13 6.3
2016-Sep-24 14:29N 50°42' W 001°59'0 0.0
2016-Sep-24 12:29N 50°42' W 001°59'0 0.0
2016-Sep-24 10:31N 50°42' W 001°59'0 0.0
2016-Sep-24 09:33N 50°42' W 001°59'67 8.3
2016-Sep-24 01:33N 49°48' W 003°01'1515.3
2016-Sep-24 00:34N 49°41' W 003°21'7615.1
2016-Sep-23 19:33N 49°02' W 005°01'  
2016-Sep-21 03:33N 50°05' W 003°16'1615.7
2016-Sep-21 02:33N 50°11' W 002°53'46 5.2
2016-Sep-20 17:33N 50°38' W 001°53'  
2016-Sep-17 22:33N 49°51' W 003°38'1414.2
2016-Sep-17 21:34N 49°59' W 003°19'1312.8
2016-Sep-17 20:33N 50°07' W 003°04'1511.9
2016-Sep-17 19:15N 50°14' W 002°42'40 6.9
2016-Sep-17 13:31N 50°42' W 001°59'0 0.0
2016-Sep-17 12:31N 50°42' W 001°59'0 0.0
2016-Sep-17 10:33N 50°42' W 001°59'0 0.0
2016-Sep-17 09:32N 50°42' W 001°59'1 0.8
2016-Sep-17 08:33N 50°42' W 001°58'9 9.3
2016-Sep-17 07:33N 50°35' W 001°49'27911.6
2016-Sep-16 07:32N 46°22' W 004°45'  

Dump ship's entire track history